Time;durP1;ratioP1;P1;durP2;ratioP2;P2;SDS_P1;SDS_P2;PMS_P1;PMS_P2;Temp;Humidity;BMP_temperature;BMP_pressure;BME280_temperature;BME280_humidity;BME280_pressure;Samples;Min_cycle;Max_cycle;Signal;HPM_P1;HPM_P2
2022/10/22 00:00:18;;;;;;;1999.90;999.90;;;;;;;;;;5127646;27;20704;-76
2022/10/22 00:02:46;;;;;;;1999.90;999.90;;;;;;;;;;5121472;27;20237;-76
2022/10/22 00:05:13;;;;;;;1999.90;999.90;;;;;;;;;;5117948;27;20951;-76
2022/10/22 00:07:43;;;;;;;1999.90;999.90;;;;;;;;;;5121173;27;21020;-76
2022/10/22 00:10:11;;;;;;;1999.90;999.90;;;;;;;;;;5122908;27;20230;-76
2022/10/22 00:12:38;;;;;;;1999.90;999.90;;;;;;;;;;5123616;27;20234;-77
2022/10/22 00:15:07;;;;;;;1999.90;999.90;;;;;;;;;;5127260;27;20803;-76
2022/10/22 00:17:35;;;;;;;1999.90;999.90;;;;;;;;;;5126223;27;20310;-76
2022/10/22 00:20:04;;;;;;;1999.90;999.90;;;;;;;;;;5126739;27;20743;-76
2022/10/22 00:22:31;;;;;;;1999.90;999.90;;;;;;;;;;5126107;27;20319;-76
2022/10/22 00:25:00;;;;;;;1999.90;999.90;;;;;;;;;;5124804;27;20226;-76
2022/10/22 00:27:28;;;;;;;1999.90;999.90;;;;;;;;;;5127231;27;20237;-75
2022/10/22 00:29:56;;;;;;;1999.90;999.90;;;;;;;;;;5125376;27;20271;-76
2022/10/22 00:32:23;;;;;;;1999.90;999.90;;;;;;;;;;5127658;27;20283;-76
2022/10/22 00:34:51;;;;;;;1999.90;999.90;;;;;;;;;;5127586;27;20264;-76
2022/10/22 00:37:19;;;;;;;1999.90;999.90;;;;;;;;;;5124226;27;20229;-75
2022/10/22 00:39:46;;;;;;;1999.90;999.90;;;;;;;;;;5126984;27;20229;-75
2022/10/22 00:42:17;;;;;;;1999.90;999.90;;;;;;;;;;5126593;27;20229;-75
2022/10/22 00:45:07;;;;;;;1999.90;999.90;;;;;;;;;;5123525;27;20463;-76
2022/10/22 00:47:35;;;;;;;1999.90;999.90;;;;;;;;;;5128441;27;20241;-75
2022/10/22 00:50:04;;;;;;;1999.90;999.90;;;;;;;;;;5126958;27;20236;-77
2022/10/22 00:52:33;;;;;;;1999.90;999.90;;;;;;;;;;5121781;27;20237;-76
2022/10/22 00:55:00;;;;;;;1999.90;999.90;;;;;;;;;;5121546;27;20916;-75
2022/10/22 00:57:29;;;;;;;1999.90;999.90;;;;;;;;;;5125839;27;20229;-75
2022/10/22 00:59:57;;;;;;;1999.90;999.90;;;;;;;;;;5127851;27;20278;-76
2022/10/22 01:02:25;;;;;;;1999.90;999.90;;;;;;;;;;5126437;27;20226;-77
2022/10/22 01:04:53;;;;;;;1999.90;999.90;;;;;;;;;;5126776;27;20723;-77
2022/10/22 01:07:23;;;;;;;1999.90;999.90;;;;;;;;;;5126701;27;20233;-76
2022/10/22 01:09:55;;;;;;;1999.90;999.90;;;;;;;;;;5124773;27;20225;-76
2022/10/22 01:12:26;;;;;;;1999.90;999.90;;;;;;;;;;5125398;27;20233;-76
2022/10/22 01:15:02;;;;;;;1999.90;999.90;;;;;;;;;;5140125;27;20245;-76
2022/10/22 01:17:32;;;;;;;1999.90;999.90;;;;;;;;;;5127641;27;20232;-76
2022/10/22 01:20:06;;;;;;;1999.90;999.90;;;;;;;;;;5127557;27;21046;-77
2022/10/22 01:22:35;;;;;;;1999.90;999.90;;;;;;;;;;5124514;27;20330;-77
2022/10/22 01:25:08;;;;;;;1999.90;999.90;;;;;;;;;;5127221;27;20269;-77
2022/10/22 01:27:42;;;;;;;1999.90;999.90;;;;;;;;;;5126201;27;20233;-77
2022/10/22 01:30:12;;;;;;;1999.90;999.90;;;;;;;;;;5123563;27;20310;-77
2022/10/22 01:32:43;;;;;;;1999.90;999.90;;;;;;;;;;5124659;27;20809;-77
2022/10/22 01:35:12;;;;;;;1999.90;999.90;;;;;;;;;;5126268;27;20331;-74
2022/10/22 01:37:45;;;;;;;1999.90;999.90;;;;;;;;;;5127682;27;21002;-74
2022/10/22 01:40:15;;;;;;;1999.90;999.90;;;;;;;;;;5125557;27;22133;-75
2022/10/22 01:42:42;;;;;;;1999.90;999.90;;;;;;;;;;5118209;27;20321;-74
2022/10/22 01:45:12;;;;;;;1999.90;999.90;;;;;;;;;;5124557;27;20226;-74
2022/10/22 01:47:47;;;;;;;1999.90;999.90;;;;;;;;;;5107962;27;20257;-74
2022/10/22 01:50:26;;;;;;;1999.90;999.90;;;;;;;;;;5124439;27;20726;-74
2022/10/22 01:53:03;;;;;;;1999.90;999.90;;;;;;;;;;5121794;27;20295;-75
2022/10/22 01:55:36;;;;;;;1999.90;999.90;;;;;;;;;;5123752;27;20286;-75
2022/10/22 01:58:10;;;;;;;1999.90;999.90;;;;;;;;;;5124600;27;20232;-75
2022/10/22 02:00:40;;;;;;;1999.90;999.90;;;;;;;;;;5124314;27;20305;-75
2022/10/22 02:03:11;;;;;;;1999.90;999.90;;;;;;;;;;5102429;27;20408;-75
2022/10/22 02:05:40;;;;;;;1999.90;999.90;;;;;;;;;;5124257;27;20230;-76
2022/10/22 02:08:09;;;;;;;1999.90;999.90;;;;;;;;;;5124945;27;20326;-76
2022/10/22 02:10:37;;;;;;;1999.90;999.90;;;;;;;;;;5121666;27;20222;-75
2022/10/22 02:13:08;;;;;;;1999.90;999.90;;;;;;;;;;5104512;27;21175;-76
2022/10/22 02:15:36;;;;;;;1999.90;999.90;;;;;;;;;;5108020;27;20302;-76
2022/10/22 02:18:23;;;;;;;1999.90;999.90;;;;;;;;;;5125236;27;20779;-76
2022/10/22 02:20:51;;;;;;;1999.90;999.90;;;;;;;;;;5124964;27;20312;-76
2022/10/22 02:23:20;;;;;;;1999.90;999.90;;;;;;;;;;5121372;27;21815;-76
2022/10/22 02:25:51;;;;;;;1999.90;999.90;;;;;;;;;;5124927;27;20408;-76
2022/10/22 02:28:21;;;;;;;1999.90;999.90;;;;;;;;;;5123498;27;20284;-76
2022/10/22 02:30:53;;;;;;;1999.90;999.90;;;;;;;;;;5125824;27;20727;-76
2022/10/22 02:33:24;;;;;;;1999.90;999.90;;;;;;;;;;5123356;27;20229;-76
2022/10/22 02:35:52;;;;;;;1999.90;999.90;;;;;;;;;;5126170;27;20713;-76
2022/10/22 02:38:20;;;;;;;1999.90;999.90;;;;;;;;;;5121386;27;20233;-75
2022/10/22 02:40:51;;;;;;;1999.90;999.90;;;;;;;;;;5120449;27;20909;-75
2022/10/22 02:43:19;;;;;;;1999.90;999.90;;;;;;;;;;5122100;27;20410;-76
2022/10/22 02:45:47;;;;;;;1999.90;999.90;;;;;;;;;;5124774;27;20237;-75
2022/10/22 02:48:14;;;;;;;1999.90;999.90;;;;;;;;;;5121731;27;20941;-76
2022/10/22 02:50:43;;;;;;;1999.90;999.90;;;;;;;;;;5124737;27;20729;-76
2022/10/22 02:53:11;;;;;;;1999.90;999.90;;;;;;;;;;5124324;27;20245;-75
2022/10/22 02:55:39;;;;;;;1999.90;999.90;;;;;;;;;;5109794;27;20615;-76
2022/10/22 02:58:06;;;;;;;1999.90;999.90;;;;;;;;;;5127390;27;20257;-76
2022/10/22 03:00:34;;;;;;;1999.90;999.90;;;;;;;;;;5124485;27;20230;-76
2022/10/22 03:03:02;;;;;;;1999.90;999.90;;;;;;;;;;5108384;27;20229;-76
2022/10/22 03:05:30;;;;;;;1999.90;999.90;;;;;;;;;;5123719;27;20992;-75
2022/10/22 03:07:59;;;;;;;1999.90;999.90;;;;;;;;;;5127830;27;20225;-75
2022/10/22 03:10:26;;;;;;;1999.90;999.90;;;;;;;;;;5129006;27;20714;-75
2022/10/22 03:12:54;;;;;;;1999.90;999.90;;;;;;;;;;5125429;27;20222;-77
2022/10/22 03:15:22;;;;;;;1999.90;999.90;;;;;;;;;;5126958;27;20229;-76
2022/10/22 03:17:50;;;;;;;1999.90;999.90;;;;;;;;;;5128267;27;20226;-76
2022/10/22 03:20:17;;;;;;;1999.90;999.90;;;;;;;;;;5110542;27;20291;-75
2022/10/22 03:22:46;;;;;;;1999.90;999.90;;;;;;;;;;5128997;27;20378;-76
2022/10/22 03:25:18;;;;;;;1999.90;999.90;;;;;;;;;;5124225;27;20222;-76
2022/10/22 03:27:46;;;;;;;1999.90;999.90;;;;;;;;;;5128058;27;20312;-75
2022/10/22 03:30:14;;;;;;;1999.90;999.90;;;;;;;;;;5127123;27;20225;-75
2022/10/22 03:32:41;;;;;;;1999.90;999.90;;;;;;;;;;5127704;27;20249;-75
2022/10/22 03:35:09;;;;;;;1999.90;999.90;;;;;;;;;;5143865;27;20261;-75
2022/10/22 03:37:37;;;;;;;1999.90;999.90;;;;;;;;;;5127371;27;20275;-75
2022/10/22 03:40:06;;;;;;;1999.90;999.90;;;;;;;;;;5128547;27;20212;-76
2022/10/22 03:42:35;;;;;;;1999.90;999.90;;;;;;;;;;5128494;27;20230;-76
2022/10/22 03:45:03;;;;;;;1999.90;999.90;;;;;;;;;;5124056;27;20229;-77
2022/10/22 03:47:30;;;;;;;1999.90;999.90;;;;;;;;;;5129302;27;20225;-76
2022/10/22 03:49:58;;;;;;;1999.90;999.90;;;;;;;;;;5127924;27;20238;-76
2022/10/22 03:52:26;;;;;;;1999.90;999.90;;;;;;;;;;5128208;27;20224;-76
2022/10/22 03:54:54;;;;;;;1999.90;999.90;;;;;;;;;;5127307;27;20237;-76
2022/10/22 03:57:22;;;;;;;1999.90;999.90;;;;;;;;;;5129891;27;20308;-76
2022/10/22 03:59:51;;;;;;;1999.90;999.90;;;;;;;;;;5130966;27;20546;-76
2022/10/22 04:02:19;;;;;;;1999.90;999.90;;;;;;;;;;5129789;27;20735;-77
2022/10/22 04:04:47;;;;;;;1999.90;999.90;;;;;;;;;;5128145;27;20230;-76
2022/10/22 04:07:14;;;;;;;1999.90;999.90;;;;;;;;;;5126920;27;20237;-75
2022/10/22 04:09:42;;;;;;;1999.90;999.90;;;;;;;;;;5120737;27;21219;-76
2022/10/22 04:12:10;;;;;;;1999.90;999.90;;;;;;;;;;5124878;27;20226;-76
2022/10/22 04:14:37;;;;;;;1999.90;999.90;;;;;;;;;;5125508;27;20251;-76
2022/10/22 04:17:06;;;;;;;1999.90;999.90;;;;;;;;;;5125154;27;20318;-76
2022/10/22 04:19:34;;;;;;;1999.90;999.90;;;;;;;;;;5125727;27;20248;-75
2022/10/22 04:22:02;;;;;;;1999.90;999.90;;;;;;;;;;5122866;27;20226;-75
2022/10/22 04:24:30;;;;;;;1999.90;999.90;;;;;;;;;;5126442;27;20304;-75
2022/10/22 04:26:58;;;;;;;1999.90;999.90;;;;;;;;;;5126997;27;20265;-74
2022/10/22 04:29:25;;;;;;;1999.90;999.90;;;;;;;;;;5126194;27;20234;-75
2022/10/22 04:31:53;;;;;;;1999.90;999.90;;;;;;;;;;5125181;27;20222;-76
2022/10/22 04:34:22;;;;;;;1999.90;999.90;;;;;;;;;;5124903;27;20305;-76
2022/10/22 04:36:50;;;;;;;1999.90;999.90;;;;;;;;;;5124346;27;20283;-76
2022/10/22 04:39:17;;;;;;;1999.90;999.90;;;;;;;;;;5126105;27;20295;-75
2022/10/22 04:41:45;;;;;;;1999.90;999.90;;;;;;;;;;5110124;27;20279;-75
2022/10/22 04:44:13;;;;;;;1999.90;999.90;;;;;;;;;;5107294;27;20222;-76
2022/10/22 04:46:45;;;;;;;1999.90;999.90;;;;;;;;;;5124471;27;20666;-76
2022/10/22 04:49:13;;;;;;;1999.90;999.90;;;;;;;;;;5125886;27;20244;-76
2022/10/22 04:51:42;;;;;;;1999.90;999.90;;;;;;;;;;5109715;27;20305;-77
2022/10/22 04:54:10;;;;;;;1999.90;999.90;;;;;;;;;;5098524;27;20234;-76
2022/10/22 04:56:37;;;;;;;1999.90;999.90;;;;;;;;;;5128016;27;21042;-76
2022/10/22 04:59:07;;;;;;;1999.90;999.90;;;;;;;;;;5124298;27;20654;-77
2022/10/22 05:01:36;;;;;;;1999.90;999.90;;;;;;;;;;5124496;27;20290;-76
2022/10/22 05:04:11;;;;;;;1999.90;999.90;;;;;;;;;;5125146;27;20324;-76
2022/10/22 05:06:39;;;;;;;1999.90;999.90;;;;;;;;;;5128508;27;20279;-77
2022/10/22 05:09:08;;;;;;;1999.90;999.90;;;;;;;;;;5121993;27;20237;-76
2022/10/22 05:11:37;;;;;;;1999.90;999.90;;;;;;;;;;5109068;27;20327;-76
2022/10/22 05:14:06;;;;;;;1999.90;999.90;;;;;;;;;;5124172;27;20940;-77
2022/10/22 05:16:34;;;;;;;1999.90;999.90;;;;;;;;;;5103620;27;20221;-77
2022/10/22 05:19:02;;;;;;;1999.90;999.90;;;;;;;;;;5119615;27;20225;-77
2022/10/22 05:21:30;;;;;;;1999.90;999.90;;;;;;;;;;5122670;27;20257;-76
2022/10/22 05:23:59;;;;;;;1999.90;999.90;;;;;;;;;;5122200;27;20816;-75
2022/10/22 05:26:29;;;;;;;1999.90;999.90;;;;;;;;;;5124025;27;20253;-77
2022/10/22 05:28:56;;;;;;;1999.90;999.90;;;;;;;;;;5124456;27;20233;-77
2022/10/22 05:31:24;;;;;;;1999.90;999.90;;;;;;;;;;5125982;27;20805;-77
2022/10/22 05:33:51;;;;;;;1999.90;999.90;;;;;;;;;;5117198;27;20721;-77
2022/10/22 05:36:20;;;;;;;1999.90;999.90;;;;;;;;;;5122154;27;20230;-77
2022/10/22 05:38:48;;;;;;;1999.90;999.90;;;;;;;;;;5122064;27;20238;-77
2022/10/22 05:41:17;;;;;;;1999.90;999.90;;;;;;;;;;5126124;27;20309;-77
2022/10/22 05:43:46;;;;;;;1999.90;999.90;;;;;;;;;;5122034;27;20233;-76
2022/10/22 05:46:15;;;;;;;1999.90;999.90;;;;;;;;;;5123192;27;20326;-76
2022/10/22 05:48:49;;;;;;;1999.90;999.90;;;;;;;;;;5105109;27;21547;-76
2022/10/22 05:51:16;;;;;;;1999.90;999.90;;;;;;;;;;5122740;27;20234;-76
2022/10/22 05:53:44;;;;;;;1999.90;999.90;;;;;;;;;;5118805;27;20326;-76
2022/10/22 05:56:13;;;;;;;1999.90;999.90;;;;;;;;;;5120254;27;20291;-76
2022/10/22 05:58:41;;;;;;;1999.90;999.90;;;;;;;;;;5124068;27;20257;-76
2022/10/22 06:01:13;;;;;;;1999.90;999.90;;;;;;;;;;5116605;27;20226;-77
2022/10/22 06:03:40;;;;;;;1999.90;999.90;;;;;;;;;;5118731;27;20578;-76
2022/10/22 06:06:15;;;;;;;1999.90;999.90;;;;;;;;;;5123680;27;20891;-77
2022/10/22 06:08:43;;;;;;;1999.90;999.90;;;;;;;;;;5121735;27;20228;-76
2022/10/22 06:11:11;;;;;;;1999.90;999.90;;;;;;;;;;5139003;27;20238;-76
2022/10/22 06:13:39;;;;;;;1999.90;999.90;;;;;;;;;;5120295;27;20273;-76
2022/10/22 06:16:07;;;;;;;1999.90;999.90;;;;;;;;;;5101229;27;20260;-76
2022/10/22 06:18:36;;;;;;;1999.90;999.90;;;;;;;;;;5124116;27;20413;-76
2022/10/22 06:21:04;;;;;;;1999.90;999.90;;;;;;;;;;5139708;27;20226;-76
2022/10/22 06:23:32;;;;;;;1999.90;999.90;;;;;;;;;;5124312;27;20234;-76
2022/10/22 06:26:00;;;;;;;1999.90;999.90;;;;;;;;;;5123904;27;20234;-77
2022/10/22 06:28:28;;;;;;;1999.90;999.90;;;;;;;;;;5121626;27;20268;-76
2022/10/22 06:30:57;;;;;;;1999.90;999.90;;;;;;;;;;5121481;27;20241;-77
2022/10/22 06:33:24;;;;;;;1999.90;999.90;;;;;;;;;;5105708;27;20222;-76
2022/10/22 06:35:53;;;;;;;1999.90;999.90;;;;;;;;;;5122697;27;20238;-76
2022/10/22 06:38:21;;;;;;;1999.90;999.90;;;;;;;;;;5123147;27;20229;-76
2022/10/22 06:40:49;;;;;;;1999.90;999.90;;;;;;;;;;5123485;27;20222;-78
2022/10/22 06:43:17;;;;;;;1999.90;999.90;;;;;;;;;;5123462;27;20228;-76
2022/10/22 06:45:44;;;;;;;1999.90;999.90;;;;;;;;;;5122660;27;20230;-76
2022/10/22 06:48:12;;;;;;;1999.90;999.90;;;;;;;;;;5122537;27;20241;-76
2022/10/22 06:50:40;;;;;;;1999.90;999.90;;;;;;;;;;5105760;27;20309;-78
2022/10/22 06:53:09;;;;;;;1999.90;999.90;;;;;;;;;;5107783;27;20322;-77
2022/10/22 06:55:37;;;;;;;1999.90;999.90;;;;;;;;;;5126581;27;20234;-79
2022/10/22 06:58:05;;;;;;;1999.90;999.90;;;;;;;;;;5127807;27;20260;-77
2022/10/22 07:00:33;;;;;;;1999.90;999.90;;;;;;;;;;5114175;27;20308;-76
2022/10/22 07:03:01;;;;;;;1999.90;999.90;;;;;;;;;;5116215;27;20230;-77
2022/10/22 07:05:29;;;;;;;1999.90;999.90;;;;;;;;;;5122699;27;20221;-76
2022/10/22 07:07:56;;;;;;;1999.90;999.90;;;;;;;;;;5127560;27;20238;-76
2022/10/22 07:10:25;;;;;;;1999.90;999.90;;;;;;;;;;5123433;27;20261;-76
2022/10/22 07:12:57;;;;;;;1999.90;999.90;;;;;;;;;;5122785;27;20770;-76
2022/10/22 07:15:25;;;;;;;1999.90;999.90;;;;;;;;;;5120691;27;20269;-77
2022/10/22 07:17:53;;;;;;;1999.90;999.90;;;;;;;;;;5123650;27;20818;-77
2022/10/22 07:20:20;;;;;;;1999.90;999.90;;;;;;;;;;5120425;27;20255;-76
2022/10/22 07:22:48;;;;;;;1999.90;999.90;;;;;;;;;;5124946;27;20233;-78
2022/10/22 07:25:16;;;;;;;1999.90;999.90;;;;;;;;;;5121696;27;20287;-76
2022/10/22 07:27:45;;;;;;;1999.90;999.90;;;;;;;;;;5103050;27;20222;-77
2022/10/22 07:30:13;;;;;;;1999.90;999.90;;;;;;;;;;5122787;27;20234;-75
2022/10/22 07:32:41;;;;;;;1999.90;999.90;;;;;;;;;;5104503;27;20231;-76
2022/10/22 07:35:08;;;;;;;1999.90;999.90;;;;;;;;;;5121148;27;20278;-77
2022/10/22 07:37:36;;;;;;;1999.90;999.90;;;;;;;;;;5123537;27;20271;-76
2022/10/22 07:40:05;;;;;;;1999.90;999.90;;;;;;;;;;5125243;27;20226;-75
2022/10/22 07:42:33;;;;;;;1999.90;999.90;;;;;;;;;;5125000;27;20226;-76
2022/10/22 07:45:02;;;;;;;1999.90;999.90;;;;;;;;;;5125811;27;21004;-75
2022/10/22 07:47:29;;;;;;;1999.90;999.90;;;;;;;;;;5126025;27;20531;-75
2022/10/22 07:49:57;;;;;;;1999.90;999.90;;;;;;;;;;5126129;27;20775;-76
2022/10/22 07:52:25;;;;;;;1999.90;999.90;;;;;;;;;;5126501;27;20360;-75
2022/10/22 07:54:53;;;;;;;1999.90;999.90;;;;;;;;;;5124873;27;20238;-76
2022/10/22 07:57:20;;;;;;;1999.90;999.90;;;;;;;;;;5121895;27;20234;-76
2022/10/22 07:59:48;;;;;;;1999.90;999.90;;;;;;;;;;5126012;27;20226;-77
2022/10/22 08:02:17;;;;;;;1999.90;999.90;;;;;;;;;;5124488;27;21015;-76
2022/10/22 08:04:45;;;;;;;1999.90;999.90;;;;;;;;;;5109815;27;20276;-75
2022/10/22 08:07:12;;;;;;;1999.90;999.90;;;;;;;;;;5127193;27;20278;-76
2022/10/22 08:09:40;;;;;;;1999.90;999.90;;;;;;;;;;5126886;27;20226;-76
2022/10/22 08:12:08;;;;;;;1999.90;999.90;;;;;;;;;;5126773;27;20237;-76
2022/10/22 08:14:36;;;;;;;1999.90;999.90;;;;;;;;;;5128968;27;20229;-76
2022/10/22 08:17:03;;;;;;;1999.90;999.90;;;;;;;;;;5127023;27;20275;-78
2022/10/22 08:19:34;;;;;;;1999.90;999.90;;;;;;;;;;5111915;27;20244;-76
2022/10/22 08:22:01;;;;;;;1999.90;999.90;;;;;;;;;;5125361;27;20257;-75
2022/10/22 08:24:29;;;;;;;1999.90;999.90;;;;;;;;;;5127587;27;20254;-76
2022/10/22 08:26:57;;;;;;;1999.90;999.90;;;;;;;;;;5125682;27;21486;-76
2022/10/22 08:29:26;;;;;;;1999.90;999.90;;;;;;;;;;5128998;27;20665;-75
2022/10/22 08:31:54;;;;;;;1999.90;999.90;;;;;;;;;;5124369;27;21182;-75
2022/10/22 08:34:22;;;;;;;1999.90;999.90;;;;;;;;;;5126293;27;20237;-76
2022/10/22 08:36:51;;;;;;;1999.90;999.90;;;;;;;;;;5126272;27;20237;-76
2022/10/22 08:39:18;;;;;;;1999.90;999.90;;;;;;;;;;5129096;27;20708;-76
2022/10/22 08:41:50;;;;;;;1999.90;999.90;;;;;;;;;;5126939;27;20720;-74
2022/10/22 08:44:44;;;;;;;1999.90;999.90;;;;;;;;;;5122783;27;20257;-75
2022/10/22 08:47:20;;;;;;;1999.90;999.90;;;;;;;;;;5117770;27;20241;-74
2022/10/22 08:49:49;;;;;;;1999.90;999.90;;;;;;;;;;5123490;27;20225;-74
2022/10/22 08:52:19;;;;;;;1999.90;999.90;;;;;;;;;;5123073;27;20318;-75
2022/10/22 08:54:50;;;;;;;1999.90;999.90;;;;;;;;;;5105725;27;20237;-76
2022/10/22 08:57:39;;;;;;;1999.90;999.90;;;;;;;;;;5123419;27;20233;-78
2022/10/22 09:00:11;;;;;;;1999.90;999.90;;;;;;;;;;5119561;27;20313;-76
2022/10/22 09:02:43;;;;;;;1999.90;999.90;;;;;;;;;;5123952;27;20226;-75
2022/10/22 09:05:17;;;;;;;1999.90;999.90;;;;;;;;;;5120075;27;20969;-76
2022/10/22 09:07:49;;;;;;;1999.90;999.90;;;;;;;;;;5126170;27;20236;-76
2022/10/22 09:10:17;;;;;;;1999.90;999.90;;;;;;;;;;5124835;27;20295;-77
2022/10/22 09:12:45;;;;;;;1999.90;999.90;;;;;;;;;;5121782;27;20260;-75
2022/10/22 09:15:14;;;;;;;1999.90;999.90;;;;;;;;;;5123469;27;22668;-75
2022/10/22 09:17:49;;;;;;;1999.90;999.90;;;;;;;;;;5124980;27;20670;-76
2022/10/22 09:20:25;;;;;;;1999.90;999.90;;;;;;;;;;5106456;27;20254;-76
2022/10/22 09:22:58;;;;;;;1999.90;999.90;;;;;;;;;;5122046;27;20228;-77
2022/10/22 09:25:27;;;;;;;1999.90;999.90;;;;;;;;;;5119777;27;20401;-80
2022/10/22 09:27:57;;;;;;;1999.90;999.90;;;;;;;;;;5123385;27;20234;-76
2022/10/22 09:30:26;;;;;;;1999.90;999.90;;;;;;;;;;5122480;27;20760;-76
2022/10/22 09:32:55;;;;;;;1999.90;999.90;;;;;;;;;;5123836;27;20282;-75
2022/10/22 09:35:24;;;;;;;1999.90;999.90;;;;;;;;;;5126679;27;21371;-75
2022/10/22 09:37:54;;;;;;;1999.90;999.90;;;;;;;;;;5124715;27;21422;-76
2022/10/22 09:40:23;;;;;;;1999.90;999.90;;;;;;;;;;5094934;27;21289;-77
2022/10/22 09:42:51;;;;;;;1999.90;999.90;;;;;;;;;;5123828;27;20420;-75
2022/10/22 09:45:20;;;;;;;1999.90;999.90;;;;;;;;;;5122835;27;21252;-75
2022/10/22 09:47:48;;;;;;;1999.90;999.90;;;;;;;;;;5124618;27;20236;-75
2022/10/22 09:50:29;;;;;;;1999.90;999.90;;;;;;;;;;5104155;27;20233;-76
2022/10/22 09:52:59;;;;;;;1999.90;999.90;;;;;;;;;;5121452;27;20226;-76
2022/10/22 09:55:28;;;;;;;1999.90;999.90;;;;;;;;;;5121296;27;20376;-76
2022/10/22 09:57:56;;;;;;;1999.90;999.90;;;;;;;;;;5135028;27;20298;-76
2022/10/22 10:00:24;;;;;;;1999.90;999.90;;;;;;;;;;5120022;27;20229;-76
2022/10/22 10:02:56;;;;;;;1999.90;999.90;;;;;;;;;;5120241;27;20229;-77
2022/10/22 10:05:26;;;;;;;1999.90;999.90;;;;;;;;;;5139279;27;20232;-76
2022/10/22 10:07:54;;;;;;;1999.90;999.90;;;;;;;;;;5117376;27;20584;-76
2022/10/22 10:10:28;;;;;;;1999.90;999.90;;;;;;;;;;5120586;27;20226;-76
2022/10/22 10:13:00;;;;;;;1999.90;999.90;;;;;;;;;;5122690;27;21300;-76
2022/10/22 10:15:29;;;;;;;1999.90;999.90;;;;;;;;;;5124289;27;20229;-76
2022/10/22 10:18:01;;;;;;;1999.90;999.90;;;;;;;;;;5126390;27;20335;-76
2022/10/22 10:20:33;;;;;;;1999.90;999.90;;;;;;;;;;5126518;27;20260;-76
2022/10/22 10:23:06;;;;;;;1999.90;999.90;;;;;;;;;;5124694;27;20236;-77
2022/10/22 10:25:37;;;;;;;1999.90;999.90;;;;;;;;;;5123642;27;20225;-77
2022/10/22 10:28:16;;;;;;;1999.90;999.90;;;;;;;;;;5123888;27;20276;-76
2022/10/22 10:30:48;;;;;;;1999.90;999.90;;;;;;;;;;5122622;27;20253;-77
2022/10/22 10:33:23;;;;;;;1999.90;999.90;;;;;;;;;;5111207;27;20279;-76
2022/10/22 10:35:54;;;;;;;1999.90;999.90;;;;;;;;;;5115508;27;20838;-75
2022/10/22 10:38:43;;;;;;;1999.90;999.90;;;;;;;;;;5111319;27;21275;-74
2022/10/22 10:41:18;;;;;;;1999.90;999.90;;;;;;;;;;5102644;27;20234;-75
2022/10/22 10:43:58;;;;;;;1999.90;999.90;;;;;;;;;;5120994;27;20703;-76
2022/10/22 10:46:31;;;;;;;1999.90;999.90;;;;;;;;;;5116661;27;20302;-75
2022/10/22 10:49:08;;;;;;;1999.90;999.90;;;;;;;;;;5108301;27;20405;-76
2022/10/22 10:51:43;;;;;;;1999.90;999.90;;;;;;;;;;5113636;27;20232;-76
2022/10/22 10:54:18;;;;;;;1999.90;999.90;;;;;;;;;;5107780;27;20263;-76
2022/10/22 10:56:49;;;;;;;1999.90;999.90;;;;;;;;;;5111478;27;20318;-75
2022/10/22 10:59:23;;;;;;;1999.90;999.90;;;;;;;;;;5089963;27;20234;-76
2022/10/22 11:02:08;;;;;;;1999.90;999.90;;;;;;;;;;5115738;27;21566;-75
2022/10/22 11:04:48;;;;;;;1999.90;999.90;;;;;;;;;;5114221;27;20277;-75
2022/10/22 11:07:17;;;;;;;1999.90;999.90;;;;;;;;;;5112823;27;20234;-77
2022/10/22 11:10:02;;;;;;;1999.90;999.90;;;;;;;;;;5121046;27;20222;-74
2022/10/22 11:12:31;;;;;;;1999.90;999.90;;;;;;;;;;5121038;27;20253;-74
2022/10/22 11:15:03;;;;;;;1999.90;999.90;;;;;;;;;;5113256;27;20218;-77
2022/10/22 11:17:35;;;;;;;1999.90;999.90;;;;;;;;;;5134194;27;20953;-78
2022/10/22 11:20:07;;;;;;;1999.90;999.90;;;;;;;;;;5116633;27;20256;-75
2022/10/22 11:22:36;;;;;;;1999.90;999.90;;;;;;;;;;5116239;27;20283;-74
2022/10/22 11:25:12;;;;;;;1999.90;999.90;;;;;;;;;;5115011;27;20230;-77
2022/10/22 11:27:42;;;;;;;1999.90;999.90;;;;;;;;;;5097055;27;20249;-75
2022/10/22 11:30:13;;;;;;;1999.90;999.90;;;;;;;;;;5132472;27;20283;-75
2022/10/22 11:32:42;;;;;;;1999.90;999.90;;;;;;;;;;5120137;27;20240;-74
2022/10/22 11:35:12;;;;;;;1999.90;999.90;;;;;;;;;;5113951;27;20234;-74
2022/10/22 11:37:42;;;;;;;1999.90;999.90;;;;;;;;;;5111904;27;20225;-77
2022/10/22 11:40:14;;;;;;;1999.90;999.90;;;;;;;;;;5102859;27;20271;-76
2022/10/22 11:42:45;;;;;;;1999.90;999.90;;;;;;;;;;5122070;27;20236;-75
2022/10/22 11:45:28;;;;;;;1999.90;999.90;;;;;;;;;;5116521;27;20237;-75
2022/10/22 11:47:58;;;;;;;1999.90;999.90;;;;;;;;;;5125450;27;20226;-70
2022/10/22 11:50:27;;;;;;;1999.90;999.90;;;;;;;;;;5116464;27;20279;-70
2022/10/22 11:52:59;;;;;;;1999.90;999.90;;;;;;;;;;5113985;27;20273;-69
2022/10/22 11:55:32;;;;;;;1999.90;999.90;;;;;;;;;;5111974;27;20242;-70
2022/10/22 11:58:01;;;;;;;1999.90;999.90;;;;;;;;;;5111055;27;20238;-71
2022/10/22 12:00:39;;;;;;;1999.90;999.90;;;;;;;;;;5098215;27;20477;-70
2022/10/22 12:03:15;;;;;;;1999.90;999.90;;;;;;;;;;5115448;27;20299;-69
2022/10/22 12:05:44;;;;;;;1999.90;999.90;;;;;;;;;;5114688;27;20282;-72
2022/10/22 12:08:17;;;;;;;1999.90;999.90;;;;;;;;;;5132685;27;20234;-69
2022/10/22 12:10:56;;;;;;;1999.90;999.90;;;;;;;;;;5121870;27;20304;-71
2022/10/22 12:13:24;;;;;;;1999.90;999.90;;;;;;;;;;5114082;27;20241;-74
2022/10/22 12:15:52;;;;;;;;;;;;;;;;;;5114236;27;20083;-74
2022/10/22 12:18:19;;;;;;;;;;;;;;;;;;5120857;27;21286;-74
2022/10/22 12:20:47;;;;;;;;;;;;;;;;;;5123202;27;20394;-75
2022/10/22 12:23:14;;;;;;;;;;;;;;;;;;5119903;27;20019;-74
2022/10/22 12:25:44;;;;;;;1999.90;999.90;;;;;;;;;;5113453;27;20499;-75
2022/10/22 12:28:12;;;;;;;1999.90;999.90;;;;;;;;;;5121487;27;21273;-75
2022/10/22 12:30:40;;;;;;;1999.90;999.90;;;;;;;;;;5107402;27;20644;-75
2022/10/22 12:33:17;;;;;;;1999.90;999.90;;;;;;;;;;5122801;27;21110;-74
2022/10/22 12:35:46;;;;;;;1999.90;999.90;;;;;;;;;;5122979;27;20238;-75
2022/10/22 12:38:15;;;;;;;1999.90;999.90;;;;;;;;;;5123423;27;21518;-74
2022/10/22 12:40:45;;;;;;;1999.90;999.90;;;;;;;;;;5102398;27;20218;-75
2022/10/22 12:43:16;;;;;;;1999.90;999.90;;;;;;;;;;5121284;27;20237;-73
2022/10/22 12:45:45;;;;;;;1999.90;999.90;;;;;;;;;;5117969;27;21101;-74
2022/10/22 12:48:15;;;;;;;1999.90;999.90;;;;;;;;;;5120483;27;20260;-74
2022/10/22 12:50:44;;;;;;;1999.90;999.90;;;;;;;;;;5118990;27;20261;-75
2022/10/22 12:53:13;;;;;;;1999.90;999.90;;;;;;;;;;5114112;27;20715;-74
2022/10/22 12:55:41;;;;;;;1999.90;999.90;;;;;;;;;;5101806;27;20353;-75
2022/10/22 12:58:16;;;;;;;1999.90;999.90;;;;;;;;;;5106861;27;20253;-74
2022/10/22 13:00:45;;;;;;;1999.90;999.90;;;;;;;;;;5118260;27;20478;-74
2022/10/22 13:03:25;;;;;;;1999.90;999.90;;;;;;;;;;5115807;27;20466;-75
2022/10/22 13:05:54;;;;;;;1999.90;999.90;;;;;;;;;;5122502;27;20410;-74
2022/10/22 13:08:23;;;;;;;1999.90;999.90;;;;;;;;;;5123356;27;20226;-75
2022/10/22 13:10:52;;;;;;;1999.90;999.90;;;;;;;;;;5119916;27;20417;-74
2022/10/22 13:13:31;;;;;;;1999.90;999.90;;;;;;;;;;5122328;27;20455;-74
2022/10/22 13:16:14;;;;;;;1999.90;999.90;;;;;;;;;;5105450;27;20475;-75
2022/10/22 13:18:42;;;;;;;1999.90;999.90;;;;;;;;;;5121367;27;20404;-75
2022/10/22 13:21:21;;;;;;;1999.90;999.90;;;;;;;;;;5124737;27;20240;-75
2022/10/22 13:23:52;;;;;;;1999.90;999.90;;;;;;;;;;5126062;27;21073;-75
2022/10/22 13:26:20;;;;;;;1999.90;999.90;;;;;;;;;;5128067;27;20229;-75
2022/10/22 13:28:54;;;;;;;1999.90;999.90;;;;;;;;;;5126452;27;20257;-75
2022/10/22 13:31:23;;;;;;;1999.90;999.90;;;;;;;;;;5108006;27;20279;-75
2022/10/22 13:33:52;;;;;;;1999.90;999.90;;;;;;;;;;5124120;27;20272;-76
2022/10/22 13:36:20;;;;;;;1999.90;999.90;;;;;;;;;;5116158;27;20257;-72
2022/10/22 13:38:48;;;;;;;1999.90;999.90;;;;;;;;;;5141205;27;20229;-74
2022/10/22 13:41:23;;;;;;;1999.90;999.90;;;;;;;;;;5126205;27;20349;-73
2022/10/22 13:43:51;;;;;;;1999.90;999.90;;;;;;;;;;5108191;27;21266;-74
2022/10/22 13:46:20;;;;;;;1999.90;999.90;;;;;;;;;;5108164;27;20232;-74
2022/10/22 13:48:49;;;;;;;1999.90;999.90;;;;;;;;;;5127330;27;20226;-73
2022/10/22 13:51:18;;;;;;;1999.90;999.90;;;;;;;;;;5127652;27;20253;-74
2022/10/22 13:53:46;;;;;;;1999.90;999.90;;;;;;;;;;5141076;27;21459;-75
2022/10/22 13:56:15;;;;;;;1999.90;999.90;;;;;;;;;;5122835;27;20866;-74